createdAt,value
2018-09-09T00:02:01.793Z,15.86
2018-09-09T00:04:31.194Z,15.86
2018-09-09T00:07:00.493Z,15.86
2018-09-09T00:09:35.142Z,15.86
2018-09-09T00:12:04.600Z,15.83
2018-09-09T00:14:34.985Z,15.85
2018-09-09T00:17:04.305Z,15.80
2018-09-09T00:19:33.629Z,15.82
2018-09-09T00:22:03.106Z,15.78
2018-09-09T00:24:32.438Z,15.77
2018-09-09T00:27:01.800Z,15.79
2018-09-09T00:29:31.093Z,15.80
2018-09-09T00:32:00.812Z,15.75
2018-09-09T00:34:30.194Z,15.77
2018-09-09T00:36:59.495Z,15.76
2018-09-09T00:39:29.080Z,15.76
2018-09-09T00:41:58.416Z,15.78
2018-09-09T00:44:27.826Z,15.78
2018-09-09T00:46:57.220Z,15.75
2018-09-09T00:49:32.173Z,15.75
2018-09-09T00:52:07.012Z,15.75
2018-09-09T00:54:36.420Z,15.69
2018-09-09T00:57:05.957Z,15.70
2018-09-09T00:59:35.366Z,15.64
2018-09-09T01:02:05.670Z,15.65
2018-09-09T01:04:35.595Z,15.63
2018-09-09T01:07:05.005Z,15.61
2018-09-09T01:09:34.729Z,15.59
2018-09-09T01:12:04.772Z,15.53
2018-09-09T01:14:34.871Z,15.57
2018-09-09T01:17:04.146Z,15.58
2018-09-09T01:19:33.479Z,15.61
2018-09-09T01:22:03.090Z,15.68
2018-09-09T01:24:32.703Z,15.63
2018-09-09T01:27:02.011Z,15.61
2018-09-09T01:29:31.778Z,15.59
2018-09-09T01:32:01.129Z,15.58
2018-09-09T01:34:30.406Z,15.57
2018-09-09T01:36:59.809Z,15.56
2018-09-09T01:39:29.129Z,15.49
2018-09-09T01:41:58.584Z,15.43
2018-09-09T01:44:28.042Z,15.45
2018-09-09T01:46:57.345Z,15.44
2018-09-09T01:49:26.746Z,15.42
2018-09-09T01:51:56.222Z,15.41
2018-09-09T01:54:25.643Z,15.42
2018-09-09T01:56:55.206Z,15.40
2018-09-09T01:59:24.644Z,15.44
2018-09-09T02:01:54.475Z,15.42
2018-09-09T02:04:23.926Z,15.45
2018-09-09T02:06:53.840Z,15.46
2018-09-09T02:09:23.286Z,15.51
2018-09-09T02:11:52.863Z,15.51
2018-09-09T02:14:22.386Z,15.47
2018-09-09T02:16:51.965Z,15.36
2018-09-09T02:19:21.367Z,15.41
2018-09-09T02:21:50.896Z,15.33
2018-09-09T02:24:20.297Z,15.31
2018-09-09T02:26:49.701Z,15.31
2018-09-09T02:29:19.741Z,15.32
2018-09-09T02:31:50.273Z,15.31
2018-09-09T02:34:19.734Z,15.32
2018-09-09T02:36:49.177Z,15.35
2018-09-09T02:39:18.665Z,15.27
2018-09-09T02:41:47.999Z,15.27
2018-09-09T02:44:17.266Z,15.32
2018-09-09T02:46:46.632Z,15.26
2018-09-09T02:49:15.854Z,15.25
2018-09-09T02:51:45.724Z,15.21
2018-09-09T02:54:15.055Z,15.18
2018-09-09T02:56:44.765Z,15.12
2018-09-09T02:59:14.268Z,15.14
2018-09-09T03:01:44.287Z,15.01
2018-09-09T03:04:13.497Z,15.08
2018-09-09T03:06:42.831Z,15.05
2018-09-09T03:09:12.187Z,14.96
2018-09-09T03:11:41.413Z,14.94
2018-09-09T03:14:11.498Z,14.92
2018-09-09T03:16:40.739Z,14.89
2018-09-09T03:19:10.020Z,14.90
2018-09-09T03:21:39.660Z,14.88
2018-09-09T03:24:08.911Z,14.84
2018-09-09T03:26:38.209Z,14.79
2018-09-09T03:29:08.157Z,14.86
2018-09-09T03:31:37.577Z,14.85
2018-09-09T03:34:07.149Z,14.90
2018-09-09T03:36:37.763Z,14.89
2018-09-09T03:39:09.071Z,14.90
2018-09-09T03:41:38.829Z,14.90
2018-09-09T03:44:08.125Z,14.95
2018-09-09T03:46:37.465Z,14.96
2018-09-09T03:49:06.833Z,14.94
2018-09-09T03:51:36.553Z,15.01
2018-09-09T03:54:05.856Z,14.98
2018-09-09T03:56:36.359Z,14.96
2018-09-09T03:59:05.870Z,14.94
2018-09-09T04:01:35.077Z,14.95
2018-09-09T04:04:04.773Z,15.01
2018-09-09T04:06:33.993Z,15.00
2018-09-09T04:09:03.390Z,14.99
2018-09-09T04:11:33.536Z,14.98
2018-09-09T04:14:02.820Z,14.98
2018-09-09T04:16:32.078Z,14.95
2018-09-09T04:19:01.806Z,15.01
2018-09-09T04:21:31.061Z,14.97
2018-09-09T04:24:00.317Z,15.02
2018-09-09T04:26:30.157Z,14.98
2018-09-09T04:28:59.459Z,14.95
2018-09-09T04:31:28.820Z,14.89
2018-09-09T04:33:58.778Z,14.88
2018-09-09T04:36:28.177Z,14.94
2018-09-09T04:38:57.496Z,14.97
2018-09-09T04:41:26.841Z,14.99
2018-09-09T04:43:56.521Z,15.03
2018-09-09T04:46:25.879Z,15.12
2018-09-09T04:48:56.114Z,15.14
2018-09-09T04:51:25.634Z,15.08
2018-09-09T04:53:54.980Z,15.12
2018-09-09T04:56:25.080Z,15.16
2018-09-09T04:58:54.854Z,15.12
2018-09-09T05:01:24.326Z,15.17
2018-09-09T05:03:53.857Z,15.25
2018-09-09T05:06:23.406Z,15.35
2018-09-09T05:08:53.097Z,15.31
2018-09-09T05:11:22.654Z,15.35
2018-09-09T05:13:52.597Z,15.34
2018-09-09T05:16:22.584Z,15.32
2018-09-09T05:18:53.320Z,15.28
2018-09-09T05:21:23.025Z,15.25
2018-09-09T05:23:52.493Z,15.24
2018-09-09T05:26:22.647Z,15.22
2018-09-09T05:28:52.403Z,15.22
2018-09-09T05:31:22.624Z,15.28
2018-09-09T05:33:52.240Z,15.29
2018-09-09T05:36:22.380Z,15.26
2018-09-09T05:38:52.725Z,15.29
2018-09-09T05:41:22.949Z,15.37
2018-09-09T05:43:52.880Z,15.38
2018-09-09T05:46:23.105Z,15.41
2018-09-09T05:48:53.566Z,15.47
2018-09-09T05:51:23.557Z,15.50
2018-09-09T05:53:53.212Z,15.54
2018-09-09T05:56:24.254Z,15.54
2018-09-09T05:58:53.910Z,15.55
2018-09-09T06:01:23.682Z,15.61
2018-09-09T06:03:54.348Z,15.65
2018-09-09T06:06:24.875Z,15.64
2018-09-09T06:08:54.939Z,15.63
2018-09-09T06:11:24.554Z,15.66
2018-09-09T06:13:54.584Z,15.65
2018-09-09T06:16:24.065Z,15.67
2018-09-09T06:18:53.972Z,15.74
2018-09-09T06:21:23.748Z,15.73
2018-09-09T06:23:53.370Z,15.70
2018-09-09T06:26:23.065Z,15.76
2018-09-09T06:28:52.685Z,15.81
2018-09-09T06:31:22.215Z,15.84
2018-09-09T06:33:51.775Z,15.87
2018-09-09T06:36:21.497Z,15.93
2018-09-09T06:38:51.703Z,16.02
2018-09-09T06:41:21.356Z,16.08
2018-09-09T06:43:51.241Z,16.22
2018-09-09T06:46:21.800Z,16.24
2018-09-09T06:48:52.645Z,16.24
2018-09-09T06:51:22.275Z,16.27
2018-09-09T06:53:52.981Z,16.32
2018-09-09T06:56:22.661Z,16.43
2018-09-09T06:58:52.374Z,16.52
2018-09-09T07:01:22.251Z,16.60
2018-09-09T07:03:52.457Z,16.70
2018-09-09T07:06:22.049Z,16.74
2018-09-09T07:08:51.677Z,16.82
2018-09-09T07:11:21.529Z,16.84
2018-09-09T07:13:51.327Z,16.92
2018-09-09T07:16:21.010Z,16.99
2018-09-09T07:18:51.945Z,16.95
2018-09-09T07:21:22.432Z,16.91
2018-09-09T07:23:52.270Z,16.98
2018-09-09T07:26:22.053Z,17.09
2018-09-09T07:28:51.533Z,17.08
2018-09-09T07:31:21.426Z,16.99
2018-09-09T07:33:53.235Z,16.92
2018-09-09T07:36:23.073Z,17.03
2018-09-09T07:38:52.729Z,17.10
2018-09-09T07:41:22.641Z,17.21
2018-09-09T07:43:53.067Z,17.35
2018-09-09T07:46:22.904Z,17.26
2018-09-09T07:48:52.930Z,17.42
2018-09-09T07:51:22.529Z,17.49
2018-09-09T07:53:52.270Z,17.59
2018-09-09T07:56:21.922Z,17.69
2018-09-09T07:58:52.531Z,17.70
2018-09-09T08:01:22.509Z,17.73
2018-09-09T08:03:52.559Z,17.83
2018-09-09T08:06:22.304Z,17.70
2018-09-09T08:08:51.967Z,17.66
2018-09-09T08:11:22.748Z,17.69
2018-09-09T08:13:52.479Z,17.75
2018-09-09T08:16:22.069Z,17.89
2018-09-09T08:18:52.318Z,18.03
2018-09-09T08:21:23.073Z,18.16
2018-09-09T08:23:52.809Z,18.23
2018-09-09T08:26:22.766Z,18.40
2018-09-09T08:28:52.523Z,18.42
2018-09-09T08:31:23.122Z,18.42
2018-09-09T08:33:54.720Z,18.51
2018-09-09T08:36:24.936Z,18.95
2018-09-09T08:38:54.905Z,19.17
2018-09-09T08:41:24.712Z,19.27
2018-09-09T08:43:55.737Z,19.32
2018-09-09T08:46:26.399Z,19.43
2018-09-09T08:48:55.927Z,19.69
2018-09-09T08:51:26.915Z,19.98
2018-09-09T08:53:56.996Z,19.86
2018-09-09T08:56:26.540Z,19.83
2018-09-09T08:58:56.142Z,19.77
2018-09-09T09:01:26.568Z,20.22
2018-09-09T09:03:57.030Z,20.86
2018-09-09T09:06:26.498Z,21.37
2018-09-09T09:08:57.542Z,22.05
2018-09-09T09:11:28.822Z,22.69
2018-09-09T09:13:59.365Z,23.43
2018-09-09T09:16:29.451Z,24.01
2018-09-09T09:18:59.370Z,24.17
2018-09-09T09:21:29.569Z,24.79
2018-09-09T09:24:01.367Z,25.10
2018-09-09T09:26:31.890Z,25.07
2018-09-09T09:29:01.290Z,25.19
2018-09-09T09:31:31.076Z,24.61
2018-09-09T09:34:05.738Z,24.36
2018-09-09T09:36:40.877Z,24.67
2018-09-09T09:39:10.255Z,25.02
2018-09-09T09:41:40.055Z,25.78
2018-09-09T09:44:09.517Z,26.34
2018-09-09T09:46:39.156Z,26.77
2018-09-09T09:49:08.453Z,26.58
2018-09-09T09:51:37.720Z,27.18
2018-09-09T09:54:07.890Z,27.04
2018-09-09T09:56:37.097Z,26.16
2018-09-09T09:59:06.413Z,25.69
2018-09-09T10:01:35.822Z,25.16
2018-09-09T10:04:05.325Z,24.57
2018-09-09T10:06:34.708Z,24.29
2018-09-09T10:09:05.084Z,24.04
2018-09-09T10:11:34.325Z,23.58
2018-09-09T10:14:03.717Z,23.56
2018-09-09T10:16:33.156Z,23.26
2018-09-09T10:19:02.590Z,23.42
2018-09-09T10:21:31.999Z,23.66
2018-09-09T10:24:02.353Z,23.78
2018-09-09T10:26:32.123Z,23.88
2018-09-09T10:29:01.772Z,24.25
2018-09-09T10:31:31.191Z,23.86
2018-09-09T10:34:00.953Z,23.90
2018-09-09T10:36:30.699Z,24.01
2018-09-09T10:39:00.065Z,23.65
2018-09-09T10:41:29.561Z,23.59
2018-09-09T10:43:59.103Z,23.21
2018-09-09T10:46:29.410Z,22.78
2018-09-09T10:49:01.291Z,22.60
2018-09-09T10:51:30.774Z,22.87
2018-09-09T10:54:01.862Z,23.07
2018-09-09T10:56:32.104Z,23.42
2018-09-09T10:59:01.427Z,23.43
2018-09-09T11:01:31.357Z,23.59
2018-09-09T11:04:08.566Z,23.80
2018-09-09T11:06:41.191Z,23.74
2018-09-09T11:09:12.178Z,23.67
2018-09-09T11:11:42.130Z,23.42
2018-09-09T11:14:13.363Z,23.42
2018-09-09T11:16:45.067Z,23.41
2018-09-09T11:19:14.633Z,23.41
2018-09-09T11:21:45.260Z,23.21
2018-09-09T11:24:16.433Z,22.99
2018-09-09T11:26:46.496Z,23.28
2018-09-09T11:29:15.967Z,23.43
2018-09-09T11:31:46.552Z,23.68
2018-09-09T11:34:16.885Z,23.85
2018-09-09T11:36:46.911Z,24.08
2018-09-09T11:39:16.990Z,24.88
2018-09-09T11:41:46.274Z,25.40
2018-09-09T11:44:17.079Z,25.59
2018-09-09T11:46:46.572Z,26.04
2018-09-09T11:49:15.832Z,26.62
2018-09-09T11:51:46.055Z,27.00
2018-09-09T11:54:15.540Z,27.21
2018-09-09T11:56:44.758Z,26.95
2018-09-09T11:59:16.285Z,26.43
2018-09-09T12:01:46.392Z,25.84
2018-09-09T12:04:17.890Z,25.85
2018-09-09T12:06:47.219Z,25.98
2018-09-09T12:09:16.486Z,26.41
2018-09-09T12:11:46.188Z,27.38
2018-09-09T12:14:16.620Z,27.92
2018-09-09T12:16:49.588Z,28.21
2018-09-09T12:19:20.021Z,28.39
2018-09-09T12:21:49.626Z,28.61
2018-09-09T12:24:19.993Z,28.46
2018-09-09T12:26:49.749Z,28.12
2018-09-09T12:29:19.244Z,27.97
2018-09-09T12:31:49.270Z,27.30
2018-09-09T12:34:19.245Z,27.13
2018-09-09T12:36:48.652Z,27.57
2018-09-09T12:39:18.066Z,28.17
2018-09-09T12:41:48.651Z,28.68
2018-09-09T12:44:24.657Z,28.48
2018-09-09T12:49:59.403Z,28.38
2018-09-09T12:52:29.650Z,28.73
2018-09-09T12:55:00.894Z,29.21
2018-09-09T12:57:32.278Z,29.29
2018-09-09T13:00:03.006Z,28.66
2018-09-09T13:02:32.429Z,28.09
2018-09-09T13:05:01.952Z,28.51
2018-09-09T13:07:31.665Z,28.69
2018-09-09T13:10:01.867Z,28.92
2018-09-09T13:12:36.446Z,28.96
2018-09-09T13:15:07.474Z,29.40
2018-09-09T13:17:36.858Z,28.55
2018-09-09T13:20:08.174Z,28.05
2018-09-09T13:22:39.245Z,28.21
2018-09-09T13:25:14.048Z,28.32
2018-09-09T13:30:43.037Z,29.71
2018-09-09T13:33:15.133Z,29.73
2018-09-09T13:35:46.505Z,29.89
2018-09-09T13:38:15.997Z,29.39
2018-09-09T13:40:45.496Z,29.12
2018-09-09T13:43:16.143Z,29.66
2018-09-09T13:45:45.442Z,29.17
2018-09-09T13:48:14.777Z,28.79
2018-09-09T13:50:44.510Z,28.55
2018-09-09T13:53:13.858Z,28.01
2018-09-09T13:55:43.218Z,27.76
2018-09-09T13:58:14.268Z,26.98
2018-09-09T14:00:43.705Z,26.77
2018-09-09T14:03:13.047Z,27.24
2018-09-09T14:05:42.863Z,27.78
2018-09-09T14:08:12.420Z,27.52
2018-09-09T14:10:41.829Z,26.91
2018-09-09T14:13:11.173Z,26.53
2018-09-09T14:15:40.560Z,26.83
2018-09-09T14:18:09.903Z,27.04
2018-09-09T14:20:39.664Z,27.06
2018-09-09T14:23:09.015Z,26.99
2018-09-09T14:25:39.399Z,26.86
2018-09-09T14:28:08.892Z,26.48
2018-09-09T14:30:38.175Z,26.20
2018-09-09T14:33:07.789Z,26.27
2018-09-09T14:35:37.139Z,26.18
2018-09-09T14:38:06.754Z,25.94
2018-09-09T14:40:36.243Z,25.80
2018-09-09T14:43:08.277Z,25.63
2018-09-09T14:45:37.552Z,25.23
2018-09-09T14:48:06.855Z,25.14
2018-09-09T14:50:36.889Z,25.27
2018-09-09T14:53:06.401Z,25.52
2018-09-09T14:55:35.594Z,25.54
2018-09-09T14:58:05.147Z,25.56
2018-09-09T15:00:37.245Z,25.47
2018-09-09T15:03:06.983Z,25.36
2018-09-09T15:05:36.409Z,25.23
2018-09-09T15:08:05.912Z,25.28
2018-09-09T15:10:37.263Z,25.25
2018-09-09T15:13:06.825Z,25.13
2018-09-09T15:15:46.161Z,24.88
2018-09-09T15:18:17.978Z,24.83
2018-09-09T15:20:50.557Z,24.53
2018-09-09T15:23:23.245Z,24.31
2018-09-09T15:25:55.801Z,24.08
2018-09-09T15:28:25.547Z,24.04
2018-09-09T15:30:55.374Z,23.92
2018-09-09T15:33:28.031Z,23.90
2018-09-09T15:35:57.964Z,23.92
2018-09-09T15:38:29.162Z,23.80
2018-09-09T15:41:00.570Z,23.80
2018-09-09T15:43:32.809Z,23.72
2018-09-09T15:46:16.974Z,23.66
2018-09-09T15:48:46.361Z,23.60
2018-09-09T15:51:16.681Z,23.54
2018-09-09T15:53:45.987Z,23.24
2018-09-09T15:56:15.363Z,23.35
2018-09-09T15:58:44.864Z,23.33
2018-09-09T16:01:14.502Z,23.42
2018-09-09T16:03:43.873Z,23.46
2018-09-09T16:06:13.149Z,23.42
2018-09-09T16:08:42.440Z,23.46
2018-09-09T16:11:12.593Z,23.40
2018-09-09T16:13:44.178Z,23.40
2018-09-09T16:16:14.062Z,23.41
2018-09-09T16:18:44.328Z,23.30
2018-09-09T16:21:14.712Z,23.20
2018-09-09T16:23:44.580Z,23.20
2018-09-09T16:26:21.560Z,23.19
2018-09-09T16:28:53.750Z,23.27
2018-09-09T16:31:23.868Z,23.22
2018-09-09T16:33:55.499Z,23.15
2018-09-09T16:36:27.618Z,22.95
2018-09-09T16:38:59.657Z,22.82
2018-09-09T16:41:30.993Z,22.84
2018-09-09T16:44:00.456Z,22.78
2018-09-09T16:46:29.945Z,22.74
2018-09-09T16:49:02.677Z,22.81
2018-09-09T16:51:33.573Z,22.75
2018-09-09T16:54:03.607Z,22.72
2018-09-09T16:56:33.584Z,22.70
2018-09-09T17:01:52.841Z,22.72
2018-09-09T17:04:41.497Z,22.74
2018-09-09T17:07:12.886Z,22.60
2018-09-09T17:09:42.610Z,22.52
2018-09-09T17:12:21.375Z,22.56
2018-09-09T17:14:51.749Z,22.59
2018-09-09T17:17:22.409Z,22.61
2018-09-09T17:19:52.470Z,22.58
2018-09-09T17:22:23.648Z,22.53
2018-09-09T17:24:54.049Z,22.34
2018-09-09T17:27:23.881Z,22.20
2018-09-09T17:30:02.333Z,22.12
2018-09-09T17:32:33.340Z,22.01
2018-09-09T17:35:03.910Z,21.95
2018-09-09T17:37:33.526Z,21.89
2018-09-09T17:40:04.722Z,21.77
2018-09-09T17:42:34.435Z,21.70
2018-09-09T17:45:03.745Z,21.66
2018-09-09T17:47:37.403Z,21.67
2018-09-09T17:50:07.973Z,21.67
2018-09-09T17:52:37.694Z,21.67
2018-09-09T17:55:07.213Z,21.60
2018-09-09T17:57:38.203Z,21.61
2018-09-09T18:00:12.158Z,21.52
2018-09-09T18:02:41.608Z,21.50
2018-09-09T18:05:16.969Z,21.48
2018-09-09T18:07:46.537Z,21.45
2018-09-09T18:10:16.148Z,21.39
2018-09-09T18:12:45.790Z,21.39
2018-09-09T18:15:26.676Z,21.35
2018-09-09T18:17:57.472Z,21.22
2018-09-09T18:20:29.461Z,21.17
2018-09-09T18:22:59.863Z,21.13
2018-09-09T18:25:30.279Z,21.14
2018-09-09T18:28:00.155Z,21.15
2018-09-09T18:30:29.640Z,21.15
2018-09-09T18:32:59.457Z,21.14
2018-09-09T18:35:29.041Z,21.15
2018-09-09T18:37:58.658Z,21.17
2018-09-09T18:40:29.616Z,21.15
2018-09-09T18:43:00.955Z,21.13
2018-09-09T18:45:30.346Z,21.12
2018-09-09T18:47:59.857Z,21.11
2018-09-09T18:50:30.077Z,21.03
2018-09-09T18:52:59.495Z,20.97
2018-09-09T18:55:29.084Z,20.93
2018-09-09T18:57:59.161Z,20.87
2018-09-09T19:00:28.738Z,20.78
2018-09-09T19:02:58.366Z,20.73
2018-09-09T19:05:28.561Z,20.63
2018-09-09T19:07:58.374Z,20.56
2018-09-09T19:10:28.450Z,20.49
2018-09-09T19:12:58.387Z,20.43
2018-09-09T19:15:28.525Z,20.37
2018-09-09T19:17:58.136Z,20.35
2018-09-09T19:20:27.642Z,20.27
2018-09-09T19:22:57.255Z,20.18
2018-09-09T19:25:26.898Z,20.14
2018-09-09T19:27:56.915Z,20.12
2018-09-09T19:30:27.811Z,20.10
2018-09-09T19:32:57.653Z,20.05
2018-09-09T19:35:27.372Z,20.04
2018-09-09T19:37:57.493Z,19.98
2018-09-09T19:40:27.365Z,19.93
2018-09-09T19:42:57.476Z,19.90
2018-09-09T19:45:27.020Z,19.86
2018-09-09T19:47:56.720Z,19.84
2018-09-09T19:50:27.318Z,19.88
2018-09-09T19:52:56.919Z,19.92
2018-09-09T19:55:26.895Z,19.90
2018-09-09T19:57:56.693Z,19.90
2018-09-09T20:00:27.210Z,19.87
2018-09-09T20:02:56.803Z,19.78
2018-09-09T20:05:27.680Z,19.68
2018-09-09T20:07:59.231Z,19.69
2018-09-09T20:10:28.840Z,19.69
2018-09-09T20:12:59.060Z,19.71
2018-09-09T20:15:30.000Z,19.71
2018-09-09T20:18:00.589Z,19.67
2018-09-09T20:20:31.441Z,19.66
2018-09-09T20:23:01.746Z,19.75
2018-09-09T20:25:31.458Z,19.70
2018-09-09T20:28:00.962Z,19.68
2018-09-09T20:30:30.536Z,19.66
2018-09-09T20:33:00.225Z,19.64
2018-09-09T20:35:30.013Z,19.58
2018-09-09T20:37:59.404Z,19.54
2018-09-09T20:40:28.717Z,19.52
2018-09-09T20:43:04.466Z,19.49
2018-09-09T20:45:33.830Z,19.53
2018-09-09T20:48:03.085Z,19.59
2018-09-09T20:50:32.384Z,19.52
2018-09-09T20:53:01.882Z,19.50
2018-09-09T20:55:31.279Z,19.45
2018-09-09T20:58:02.277Z,19.48
2018-09-09T21:00:31.830Z,19.50
2018-09-09T21:03:01.229Z,19.49
2018-09-09T21:05:30.724Z,19.46
2018-09-09T21:08:00.196Z,19.44
2018-09-09T21:10:29.909Z,19.48
2018-09-09T21:12:59.630Z,19.50
2018-09-09T21:15:30.593Z,19.49
2018-09-09T21:18:00.335Z,19.49
2018-09-09T21:20:32.463Z,19.47
2018-09-09T21:23:01.944Z,19.51
2018-09-09T21:25:31.448Z,19.53
2018-09-09T21:28:01.093Z,19.54
2018-09-09T21:30:30.679Z,19.48
2018-09-09T21:33:00.529Z,19.45
2018-09-09T21:35:30.015Z,19.45
2018-09-09T21:38:00.649Z,19.42
2018-09-09T21:40:30.073Z,19.40
2018-09-09T21:43:00.416Z,19.34
2018-09-09T21:45:30.680Z,19.38
2018-09-09T21:48:00.589Z,19.36
2018-09-09T21:50:30.325Z,19.32
2018-09-09T21:53:00.649Z,19.29
2018-09-09T21:55:30.040Z,19.22
2018-09-09T21:57:59.678Z,19.23
2018-09-09T22:00:29.665Z,19.22
2018-09-09T22:02:59.453Z,19.17
2018-09-09T22:05:29.064Z,19.04
2018-09-09T22:07:58.697Z,19.09
2018-09-09T22:10:29.429Z,19.11
2018-09-09T22:13:09.457Z,19.06
2018-09-09T22:15:38.706Z,18.99
2018-09-09T22:18:08.026Z,18.97
2018-09-09T22:20:37.486Z,18.94
2018-09-09T22:23:06.885Z,18.94
2018-09-09T22:25:37.622Z,18.96
2018-09-09T22:28:08.679Z,18.90
2018-09-09T22:30:37.944Z,18.86
2018-09-09T22:33:07.425Z,18.81
2018-09-09T22:35:37.945Z,18.85
2018-09-09T22:38:07.499Z,18.86
2018-09-09T22:40:37.402Z,18.85
2018-09-09T22:43:06.848Z,18.88
2018-09-09T22:45:36.160Z,18.90
2018-09-09T22:48:05.564Z,18.88
2018-09-09T22:50:35.110Z,18.89
2018-09-09T22:53:04.547Z,18.89
2018-09-09T22:55:34.014Z,18.82
2018-09-09T22:58:04.342Z,18.81
2018-09-09T23:00:34.156Z,18.80
2018-09-09T23:03:03.480Z,18.73
2018-09-09T23:05:32.903Z,18.74
2018-09-09T23:08:02.794Z,18.69
2018-09-09T23:10:32.090Z,18.70
2018-09-09T23:13:02.212Z,18.67
2018-09-09T23:15:32.440Z,18.60
2018-09-09T23:18:02.038Z,18.56
2018-09-09T23:20:32.691Z,18.49
2018-09-09T23:23:02.120Z,18.42
2018-09-09T23:25:31.509Z,18.43
2018-09-09T23:28:01.070Z,18.46
2018-09-09T23:30:30.510Z,18.44
2018-09-09T23:32:59.895Z,18.49
2018-09-09T23:35:29.425Z,18.51
2018-09-09T23:37:58.988Z,18.52
2018-09-09T23:40:28.552Z,18.52
2018-09-09T23:42:58.773Z,18.53
2018-09-09T23:45:28.904Z,18.56
2018-09-09T23:47:58.255Z,18.61
2018-09-09T23:50:27.813Z,18.63
2018-09-09T23:52:57.315Z,18.64
2018-09-09T23:55:26.821Z,18.68
2018-09-09T23:57:57.269Z,18.66
